sensor_id;sensor_type;location;lat;lon;timestamp;P1;durP1;ratioP1;P2;durP2;ratioP2
85137;SDS011;75497;42.708;23.330;2024-03-23T00:54:22;24.45;;;11.82;;
85137;SDS011;75497;42.708;23.330;2024-03-23T00:56:48;29.60;;;12.73;;
85137;SDS011;75497;42.708;23.330;2024-03-23T00:59:13;33.53;;;12.98;;
85137;SDS011;75497;42.708;23.330;2024-03-23T01:01:39;31.88;;;12.35;;
85137;SDS011;75497;42.708;23.330;2024-03-23T01:04:05;31.83;;;12.40;;
85137;SDS011;75497;42.708;23.330;2024-03-23T01:06:30;24.65;;;12.35;;
85137;SDS011;75497;42.708;23.330;2024-03-23T01:08:56;26.48;;;13.38;;
85137;SDS011;75497;42.708;23.330;2024-03-23T01:11:21;29.52;;;11.73;;
85137;SDS011;75497;42.708;23.330;2024-03-23T01:13:47;26.23;;;12.60;;
85137;SDS011;75497;42.708;23.330;2024-03-23T01:16:12;25.42;;;12.45;;
85137;SDS011;75497;42.708;23.330;2024-03-23T01:18:38;28.35;;;13.15;;
85137;SDS011;75497;42.708;23.330;2024-03-23T01:21:04;27.55;;;12.15;;
85137;SDS011;75497;42.708;23.330;2024-03-23T01:23:29;25.90;;;13.35;;
85137;SDS011;75497;42.708;23.330;2024-03-23T01:25:55;28.95;;;12.52;;
85137;SDS011;75497;42.708;23.330;2024-03-23T01:28:21;25.92;;;11.93;;
85137;SDS011;75497;42.708;23.330;2024-03-23T01:30:47;31.85;;;14.18;;
85137;SDS011;75497;42.708;23.330;2024-03-23T01:33:13;29.08;;;13.15;;
85137;SDS011;75497;42.708;23.330;2024-03-23T01:35:39;28.77;;;13.63;;
85137;SDS011;75497;42.708;23.330;2024-03-23T01:38:05;25.55;;;14.20;;
85137;SDS011;75497;42.708;23.330;2024-03-23T01:40:31;25.73;;;12.18;;
85137;SDS011;75497;42.708;23.330;2024-03-23T01:43:07;25.23;;;12.57;;
85137;SDS011;75497;42.708;23.330;2024-03-23T01:45:33;28.35;;;11.15;;
85137;SDS011;75497;42.708;23.330;2024-03-23T01:47:59;25.20;;;11.35;;
85137;SDS011;75497;42.708;23.330;2024-03-23T01:50:25;27.65;;;10.75;;
85137;SDS011;75497;42.708;23.330;2024-03-23T01:52:52;20.15;;;11.13;;
85137;SDS011;75497;42.708;23.330;2024-03-23T01:55:18;22.40;;;10.15;;
85137;SDS011;75497;42.708;23.330;2024-03-23T01:57:44;26.33;;;9.90;;
85137;SDS011;75497;42.708;23.330;2024-03-23T02:00:10;25.35;;;10.57;;
85137;SDS011;75497;42.708;23.330;2024-03-23T02:05:09;20.75;;;10.10;;
85137;SDS011;75497;42.708;23.330;2024-03-23T02:07:36;21.95;;;10.52;;
85137;SDS011;75497;42.708;23.330;2024-03-23T02:10:03;21.58;;;9.95;;
85137;SDS011;75497;42.708;23.330;2024-03-23T02:12:28;20.90;;;9.40;;
85137;SDS011;75497;42.708;23.330;2024-03-23T02:14:54;22.30;;;9.57;;
85137;SDS011;75497;42.708;23.330;2024-03-23T02:17:19;20.85;;;9.07;;
85137;SDS011;75497;42.708;23.330;2024-03-23T02:19:45;21.27;;;9.40;;
85137;SDS011;75497;42.708;23.330;2024-03-23T02:22:11;22.23;;;7.93;;
85137;SDS011;75497;42.708;23.330;2024-03-23T02:24:37;16.98;;;8.52;;
85137;SDS011;75497;42.708;23.330;2024-03-23T02:27:03;22.38;;;10.27;;
85137;SDS011;75497;42.708;23.330;2024-03-23T02:29:28;22.75;;;10.38;;
85137;SDS011;75497;42.708;23.330;2024-03-23T02:31:54;23.50;;;10.75;;
85137;SDS011;75497;42.708;23.330;2024-03-23T02:34:19;17.60;;;8.38;;
85137;SDS011;75497;42.708;23.330;2024-03-23T02:36:45;21.40;;;8.52;;
85137;SDS011;75497;42.708;23.330;2024-03-23T02:39:11;18.67;;;9.05;;
85137;SDS011;75497;42.708;23.330;2024-03-23T02:41:36;19.90;;;9.15;;
85137;SDS011;75497;42.708;23.330;2024-03-23T02:44:02;20.38;;;8.38;;
85137;SDS011;75497;42.708;23.330;2024-03-23T02:46:27;17.75;;;8.02;;
85137;SDS011;75497;42.708;23.330;2024-03-23T02:48:53;18.52;;;8.20;;
85137;SDS011;75497;42.708;23.330;2024-03-23T02:51:19;14.68;;;7.22;;
85137;SDS011;75497;42.708;23.330;2024-03-23T02:53:44;17.30;;;7.70;;
85137;SDS011;75497;42.708;23.330;2024-03-23T02:56:10;17.55;;;7.75;;
85137;SDS011;75497;42.708;23.330;2024-03-23T02:58:41;16.42;;;7.18;;
85137;SDS011;75497;42.708;23.330;2024-03-23T03:01:06;15.13;;;7.20;;
85137;SDS011;75497;42.708;23.330;2024-03-23T03:03:32;18.65;;;8.63;;
85137;SDS011;75497;42.708;23.330;2024-03-23T03:05:58;18.23;;;7.88;;
85137;SDS011;75497;42.708;23.330;2024-03-23T03:08:23;15.13;;;7.05;;
85137;SDS011;75497;42.708;23.330;2024-03-23T03:10:49;20.75;;;7.90;;
85137;SDS011;75497;42.708;23.330;2024-03-23T03:13:14;19.77;;;8.10;;
85137;SDS011;75497;42.708;23.330;2024-03-23T03:15:44;14.95;;;7.00;;
85137;SDS011;75497;42.708;23.330;2024-03-23T03:18:10;19.50;;;7.20;;
85137;SDS011;75497;42.708;23.330;2024-03-23T03:20:39;15.45;;;5.97;;
85137;SDS011;75497;42.708;23.330;2024-03-23T03:23:05;14.93;;;6.97;;
85137;SDS011;75497;42.708;23.330;2024-03-23T03:25:31;15.75;;;6.30;;
85137;SDS011;75497;42.708;23.330;2024-03-23T03:27:57;13.93;;;6.32;;
85137;SDS011;75497;42.708;23.330;2024-03-23T03:30:22;16.13;;;6.18;;
85137;SDS011;75497;42.708;23.330;2024-03-23T03:32:49;17.73;;;6.25;;
85137;SDS011;75497;42.708;23.330;2024-03-23T03:35:14;15.25;;;6.43;;
85137;SDS011;75497;42.708;23.330;2024-03-23T03:40:24;14.95;;;6.50;;
85137;SDS011;75497;42.708;23.330;2024-03-23T03:42:50;14.13;;;5.72;;
85137;SDS011;75497;42.708;23.330;2024-03-23T03:45:16;14.45;;;6.35;;
85137;SDS011;75497;42.708;23.330;2024-03-23T03:47:41;15.80;;;6.60;;
85137;SDS011;75497;42.708;23.330;2024-03-23T03:50:07;17.40;;;6.88;;
85137;SDS011;75497;42.708;23.330;2024-03-23T03:52:32;16.50;;;7.20;;
85137;SDS011;75497;42.708;23.330;2024-03-23T03:55:02;16.65;;;7.03;;
85137;SDS011;75497;42.708;23.330;2024-03-23T03:57:28;16.73;;;6.32;;
85137;SDS011;75497;42.708;23.330;2024-03-23T03:59:54;18.67;;;7.38;;
85137;SDS011;75497;42.708;23.330;2024-03-23T04:02:19;15.85;;;6.95;;
85137;SDS011;75497;42.708;23.330;2024-03-23T04:04:45;24.73;;;6.82;;
85137;SDS011;75497;42.708;23.330;2024-03-23T04:07:10;17.98;;;7.35;;
85137;SDS011;75497;42.708;23.330;2024-03-23T04:09:36;13.32;;;6.93;;
85137;SDS011;75497;42.708;23.330;2024-03-23T04:12:01;15.85;;;6.88;;
85137;SDS011;75497;42.708;23.330;2024-03-23T04:14:27;14.18;;;6.53;;
85137;SDS011;75497;42.708;23.330;2024-03-23T04:16:52;13.60;;;5.78;;
85137;SDS011;75497;42.708;23.330;2024-03-23T04:19:18;15.00;;;6.80;;
85137;SDS011;75497;42.708;23.330;2024-03-23T04:21:44;16.60;;;6.65;;
85137;SDS011;75497;42.708;23.330;2024-03-23T04:24:10;16.80;;;7.43;;
85137;SDS011;75497;42.708;23.330;2024-03-23T04:26:42;18.30;;;7.45;;
85137;SDS011;75497;42.708;23.330;2024-03-23T04:29:08;16.25;;;8.00;;
85137;SDS011;75497;42.708;23.330;2024-03-23T04:31:34;15.68;;;7.20;;
85137;SDS011;75497;42.708;23.330;2024-03-23T04:34:02;20.52;;;6.85;;
85137;SDS011;75497;42.708;23.330;2024-03-23T04:36:28;20.23;;;7.70;;
85137;SDS011;75497;42.708;23.330;2024-03-23T04:38:54;19.00;;;7.95;;
85137;SDS011;75497;42.708;23.330;2024-03-23T04:41:19;14.85;;;6.63;;
85137;SDS011;75497;42.708;23.330;2024-03-23T04:43:45;18.45;;;6.78;;
85137;SDS011;75497;42.708;23.330;2024-03-23T04:46:10;19.27;;;7.80;;
85137;SDS011;75497;42.708;23.330;2024-03-23T04:48:36;19.58;;;7.20;;
85137;SDS011;75497;42.708;23.330;2024-03-23T04:51:01;16.10;;;7.60;;
85137;SDS011;75497;42.708;23.330;2024-03-23T04:53:27;17.50;;;7.50;;
85137;SDS011;75497;42.708;23.330;2024-03-23T04:55:56;22.20;;;7.90;;
85137;SDS011;75497;42.708;23.330;2024-03-23T04:58:22;21.30;;;7.38;;
85137;SDS011;75497;42.708;23.330;2024-03-23T05:00:52;15.55;;;6.60;;
85137;SDS011;75497;42.708;23.330;2024-03-23T05:03:19;23.77;;;7.90;;
85137;SDS011;75497;42.708;23.330;2024-03-23T05:05:46;18.00;;;7.03;;
85137;SDS011;75497;42.708;23.330;2024-03-23T05:08:15;16.15;;;7.63;;
85137;SDS011;75497;42.708;23.330;2024-03-23T05:10:41;18.73;;;7.60;;
85137;SDS011;75497;42.708;23.330;2024-03-23T05:13:07;15.05;;;7.18;;
85137;SDS011;75497;42.708;23.330;2024-03-23T05:15:33;19.10;;;8.40;;
85137;SDS011;75497;42.708;23.330;2024-03-23T05:17:59;22.65;;;9.10;;
85137;SDS011;75497;42.708;23.330;2024-03-23T05:20:24;21.77;;;8.85;;
85137;SDS011;75497;42.708;23.330;2024-03-23T05:22:50;18.52;;;9.55;;
85137;SDS011;75497;42.708;23.330;2024-03-23T05:25:16;21.08;;;7.85;;
85137;SDS011;75497;42.708;23.330;2024-03-23T05:27:41;26.80;;;9.98;;
85137;SDS011;75497;42.708;23.330;2024-03-23T05:30:07;28.88;;;10.85;;
85137;SDS011;75497;42.708;23.330;2024-03-23T05:32:34;27.75;;;10.63;;
85137;SDS011;75497;42.708;23.330;2024-03-23T05:34:59;30.15;;;10.45;;
85137;SDS011;75497;42.708;23.330;2024-03-23T05:37:25;26.60;;;12.15;;
85137;SDS011;75497;42.708;23.330;2024-03-23T05:39:51;16.48;;;8.50;;
85137;SDS011;75497;42.708;23.330;2024-03-23T05:42:17;17.05;;;7.82;;
85137;SDS011;75497;42.708;23.330;2024-03-23T05:44:46;20.63;;;8.85;;
85137;SDS011;75497;42.708;23.330;2024-03-23T05:47:11;19.55;;;8.68;;
85137;SDS011;75497;42.708;23.330;2024-03-23T05:49:41;19.77;;;8.30;;
85137;SDS011;75497;42.708;23.330;2024-03-23T05:52:08;26.58;;;9.32;;
85137;SDS011;75497;42.708;23.330;2024-03-23T05:54:34;18.33;;;8.52;;
85137;SDS011;75497;42.708;23.330;2024-03-23T05:57:00;19.60;;;8.40;;
85137;SDS011;75497;42.708;23.330;2024-03-23T05:59:26;18.67;;;8.07;;
85137;SDS011;75497;42.708;23.330;2024-03-23T06:01:52;22.08;;;8.80;;
85137;SDS011;75497;42.708;23.330;2024-03-23T06:04:18;21.63;;;8.30;;
85137;SDS011;75497;42.708;23.330;2024-03-23T06:06:44;17.63;;;7.82;;
85137;SDS011;75497;42.708;23.330;2024-03-23T06:09:10;22.60;;;9.23;;
85137;SDS011;75497;42.708;23.330;2024-03-23T06:11:35;21.05;;;8.13;;
85137;SDS011;75497;42.708;23.330;2024-03-23T06:14:01;17.85;;;9.07;;
85137;SDS011;75497;42.708;23.330;2024-03-23T06:16:27;18.10;;;7.28;;
85137;SDS011;75497;42.708;23.330;2024-03-23T06:18:54;18.10;;;8.90;;
85137;SDS011;75497;42.708;23.330;2024-03-23T06:21:20;19.95;;;9.02;;
85137;SDS011;75497;42.708;23.330;2024-03-23T06:23:46;20.92;;;8.85;;
85137;SDS011;75497;42.708;23.330;2024-03-23T06:26:17;21.38;;;9.93;;
85137;SDS011;75497;42.708;23.330;2024-03-23T06:28:43;22.30;;;9.07;;
85137;SDS011;75497;42.708;23.330;2024-03-23T06:31:09;21.33;;;9.50;;
85137;SDS011;75497;42.708;23.330;2024-03-23T06:33:35;17.88;;;8.60;;
85137;SDS011;75497;42.708;23.330;2024-03-23T06:36:00;22.52;;;9.85;;
85137;SDS011;75497;42.708;23.330;2024-03-23T06:38:28;24.52;;;9.90;;
85137;SDS011;75497;42.708;23.330;2024-03-23T06:40:54;18.60;;;9.30;;
85137;SDS011;75497;42.708;23.330;2024-03-23T06:43:19;21.15;;;9.35;;
85137;SDS011;75497;42.708;23.330;2024-03-23T06:45:51;22.98;;;8.75;;
85137;SDS011;75497;42.708;23.330;2024-03-23T06:48:18;18.80;;;9.00;;
85137;SDS011;75497;42.708;23.330;2024-03-23T06:50:44;19.35;;;8.48;;
85137;SDS011;75497;42.708;23.330;2024-03-23T06:53:11;17.38;;;8.98;;
85137;SDS011;75497;42.708;23.330;2024-03-23T06:55:37;25.55;;;9.20;;
85137;SDS011;75497;42.708;23.330;2024-03-23T06:58:03;18.23;;;8.55;;
85137;SDS011;75497;42.708;23.330;2024-03-23T07:00:29;23.15;;;8.98;;
85137;SDS011;75497;42.708;23.330;2024-03-23T07:02:55;22.50;;;10.15;;
85137;SDS011;75497;42.708;23.330;2024-03-23T07:05:20;21.10;;;9.30;;
85137;SDS011;75497;42.708;23.330;2024-03-23T07:07:46;26.02;;;11.32;;
85137;SDS011;75497;42.708;23.330;2024-03-23T07:10:11;22.55;;;9.68;;
85137;SDS011;75497;42.708;23.330;2024-03-23T07:12:37;20.38;;;9.15;;
85137;SDS011;75497;42.708;23.330;2024-03-23T07:15:02;23.10;;;9.07;;
85137;SDS011;75497;42.708;23.330;2024-03-23T07:17:28;20.35;;;9.77;;
85137;SDS011;75497;42.708;23.330;2024-03-23T07:19:54;22.33;;;10.85;;
85137;SDS011;75497;42.708;23.330;2024-03-23T07:22:19;20.95;;;9.23;;
85137;SDS011;75497;42.708;23.330;2024-03-23T07:24:45;22.02;;;8.18;;
85137;SDS011;75497;42.708;23.330;2024-03-23T07:27:11;21.55;;;8.32;;
85137;SDS011;75497;42.708;23.330;2024-03-23T07:29:36;19.90;;;8.57;;
85137;SDS011;75497;42.708;23.330;2024-03-23T07:32:02;19.98;;;9.45;;
85137;SDS011;75497;42.708;23.330;2024-03-23T07:34:28;18.58;;;8.75;;
85137;SDS011;75497;42.708;23.330;2024-03-23T07:36:53;20.38;;;8.38;;
85137;SDS011;75497;42.708;23.330;2024-03-23T07:39:19;20.83;;;9.35;;
85137;SDS011;75497;42.708;23.330;2024-03-23T07:41:44;18.50;;;10.70;;
85137;SDS011;75497;42.708;23.330;2024-03-23T07:44:10;19.58;;;9.57;;
85137;SDS011;75497;42.708;23.330;2024-03-23T07:46:36;24.08;;;10.95;;
85137;SDS011;75497;42.708;23.330;2024-03-23T07:49:02;21.65;;;9.73;;
85137;SDS011;75497;42.708;23.330;2024-03-23T07:51:29;20.30;;;9.52;;
85137;SDS011;75497;42.708;23.330;2024-03-23T07:53:55;20.23;;;10.40;;
85137;SDS011;75497;42.708;23.330;2024-03-23T07:56:20;26.17;;;10.88;;
85137;SDS011;75497;42.708;23.330;2024-03-23T07:58:47;19.92;;;9.10;;
85137;SDS011;75497;42.708;23.330;2024-03-23T08:01:14;22.08;;;9.45;;
85137;SDS011;75497;42.708;23.330;2024-03-23T08:03:41;21.08;;;11.02;;
85137;SDS011;75497;42.708;23.330;2024-03-23T08:06:18;23.17;;;11.50;;
85137;SDS011;75497;42.708;23.330;2024-03-23T08:08:45;17.23;;;8.32;;
85137;SDS011;75497;42.708;23.330;2024-03-23T08:11:13;19.33;;;7.85;;
85137;SDS011;75497;42.708;23.330;2024-03-23T08:13:39;21.08;;;7.80;;
85137;SDS011;75497;42.708;23.330;2024-03-23T08:16:06;15.43;;;7.35;;
85137;SDS011;75497;42.708;23.330;2024-03-23T08:18:34;18.42;;;7.78;;
85137;SDS011;75497;42.708;23.330;2024-03-23T08:21:00;17.90;;;7.72;;
85137;SDS011;75497;42.708;23.330;2024-03-23T08:23:30;18.10;;;7.13;;
85137;SDS011;75497;42.708;23.330;2024-03-23T08:26:01;19.83;;;8.73;;
85137;SDS011;75497;42.708;23.330;2024-03-23T08:28:28;18.20;;;7.75;;
85137;SDS011;75497;42.708;23.330;2024-03-23T08:30:54;22.50;;;8.13;;
85137;SDS011;75497;42.708;23.330;2024-03-23T08:33:21;21.55;;;8.38;;
85137;SDS011;75497;42.708;23.330;2024-03-23T08:35:57;17.88;;;7.95;;
85137;SDS011;75497;42.708;23.330;2024-03-23T08:38:27;18.33;;;9.30;;
85137;SDS011;75497;42.708;23.330;2024-03-23T08:41:11;18.58;;;8.55;;
85137;SDS011;75497;42.708;23.330;2024-03-23T08:43:38;20.50;;;9.80;;
85137;SDS011;75497;42.708;23.330;2024-03-23T08:46:07;19.27;;;10.80;;
85137;SDS011;75497;42.708;23.330;2024-03-23T08:48:35;20.42;;;9.50;;
85137;SDS011;75497;42.708;23.330;2024-03-23T08:51:07;17.00;;;9.68;;
85137;SDS011;75497;42.708;23.330;2024-03-23T08:53:34;18.73;;;9.90;;
85137;SDS011;75497;42.708;23.330;2024-03-23T08:56:00;23.75;;;14.50;;
85137;SDS011;75497;42.708;23.330;2024-03-23T08:58:27;20.38;;;10.60;;
85137;SDS011;75497;42.708;23.330;2024-03-23T09:00:54;24.27;;;9.73;;
85137;SDS011;75497;42.708;23.330;2024-03-23T09:03:25;22.00;;;10.35;;
85137;SDS011;75497;42.708;23.330;2024-03-23T09:05:51;21.88;;;11.55;;
85137;SDS011;75497;42.708;23.330;2024-03-23T09:08:18;21.23;;;11.30;;
85137;SDS011;75497;42.708;23.330;2024-03-23T09:10:43;22.13;;;11.27;;
85137;SDS011;75497;42.708;23.330;2024-03-23T09:13:09;23.67;;;14.48;;
85137;SDS011;75497;42.708;23.330;2024-03-23T09:15:36;29.10;;;11.88;;
85137;SDS011;75497;42.708;23.330;2024-03-23T09:18:03;23.17;;;12.07;;
85137;SDS011;75497;42.708;23.330;2024-03-23T09:20:32;24.52;;;11.68;;
85137;SDS011;75497;42.708;23.330;2024-03-23T09:22:58;28.17;;;12.95;;
85137;SDS011;75497;42.708;23.330;2024-03-23T09:25:23;20.88;;;10.45;;
85137;SDS011;75497;42.708;23.330;2024-03-23T09:27:49;18.80;;;10.85;;
85137;SDS011;75497;42.708;23.330;2024-03-23T09:30:15;19.92;;;10.55;;
85137;SDS011;75497;42.708;23.330;2024-03-23T09:32:42;22.05;;;10.75;;
85137;SDS011;75497;42.708;23.330;2024-03-23T09:35:09;23.98;;;11.50;;
85137;SDS011;75497;42.708;23.330;2024-03-23T09:37:35;21.80;;;10.55;;
85137;SDS011;75497;42.708;23.330;2024-03-23T09:40:01;20.27;;;10.80;;
85137;SDS011;75497;42.708;23.330;2024-03-23T09:42:27;19.88;;;10.20;;
85137;SDS011;75497;42.708;23.330;2024-03-23T09:44:53;18.38;;;9.75;;
85137;SDS011;75497;42.708;23.330;2024-03-23T09:47:21;26.30;;;14.35;;
85137;SDS011;75497;42.708;23.330;2024-03-23T09:49:47;22.42;;;11.60;;
85137;SDS011;75497;42.708;23.330;2024-03-23T09:52:12;19.45;;;9.52;;
85137;SDS011;75497;42.708;23.330;2024-03-23T09:54:38;16.92;;;9.27;;
85137;SDS011;75497;42.708;23.330;2024-03-23T09:57:04;19.70;;;9.25;;
85137;SDS011;75497;42.708;23.330;2024-03-23T09:59:31;18.15;;;10.45;;
85137;SDS011;75497;42.708;23.330;2024-03-23T10:01:58;15.05;;;8.60;;
85137;SDS011;75497;42.708;23.330;2024-03-23T10:04:44;21.25;;;8.20;;
85137;SDS011;75497;42.708;23.330;2024-03-23T10:07:17;14.35;;;8.70;;
85137;SDS011;75497;42.708;23.330;2024-03-23T10:09:44;18.73;;;8.25;;
85137;SDS011;75497;42.708;23.330;2024-03-23T10:12:11;16.02;;;8.10;;
85137;SDS011;75497;42.708;23.330;2024-03-23T10:14:41;18.17;;;9.25;;
85137;SDS011;75497;42.708;23.330;2024-03-23T10:22:14;16.00;;;7.25;;
85137;SDS011;75497;42.708;23.330;2024-03-23T10:24:42;19.48;;;8.25;;
85137;SDS011;75497;42.708;23.330;2024-03-23T10:27:08;24.45;;;9.68;;
85137;SDS011;75497;42.708;23.330;2024-03-23T10:29:33;14.73;;;7.15;;
85137;SDS011;75497;42.708;23.330;2024-03-23T10:32:08;14.80;;;8.25;;
85137;SDS011;75497;42.708;23.330;2024-03-23T10:34:38;15.85;;;7.43;;
85137;SDS011;75497;42.708;23.330;2024-03-23T10:37:04;14.13;;;7.15;;
85137;SDS011;75497;42.708;23.330;2024-03-23T10:39:37;12.82;;;7.35;;
85137;SDS011;75497;42.708;23.330;2024-03-23T10:42:08;13.93;;;6.50;;
85137;SDS011;75497;42.708;23.330;2024-03-23T10:44:36;13.77;;;7.32;;
85137;SDS011;75497;42.708;23.330;2024-03-23T10:47:02;14.38;;;6.53;;
85137;SDS011;75497;42.708;23.330;2024-03-23T10:49:34;11.75;;;6.15;;
85137;SDS011;75497;42.708;23.330;2024-03-23T10:52:04;16.13;;;6.97;;
85137;SDS011;75497;42.708;23.330;2024-03-23T10:54:30;15.02;;;6.97;;
85137;SDS011;75497;42.708;23.330;2024-03-23T10:59:38;15.60;;;7.53;;
85137;SDS011;75497;42.708;23.330;2024-03-23T11:02:05;14.00;;;6.95;;
85137;SDS011;75497;42.708;23.330;2024-03-23T11:04:36;14.95;;;6.78;;
85137;SDS011;75497;42.708;23.330;2024-03-23T11:07:28;14.23;;;6.15;;
85137;SDS011;75497;42.708;23.330;2024-03-23T11:09:52;17.58;;;6.30;;
85137;SDS011;75497;42.708;23.330;2024-03-23T11:14:50;13.43;;;6.80;;
85137;SDS011;75497;42.708;23.330;2024-03-23T11:17:18;11.45;;;5.95;;
85137;SDS011;75497;42.708;23.330;2024-03-23T11:19:44;12.52;;;7.00;;
85137;SDS011;75497;42.708;23.330;2024-03-23T11:22:37;13.05;;;6.28;;
85137;SDS011;75497;42.708;23.330;2024-03-23T11:25:12;10.80;;;5.65;;
85137;SDS011;75497;42.708;23.330;2024-03-23T11:27:46;13.40;;;5.93;;
85137;SDS011;75497;42.708;23.330;2024-03-23T11:30:16;16.23;;;6.68;;
85137;SDS011;75497;42.708;23.330;2024-03-23T11:32:47;13.02;;;6.63;;
85137;SDS011;75497;42.708;23.330;2024-03-23T11:35:26;12.23;;;6.15;;
85137;SDS011;75497;42.708;23.330;2024-03-23T11:38:04;24.15;;;6.68;;
85137;SDS011;75497;42.708;23.330;2024-03-23T11:40:37;19.73;;;7.20;;
85137;SDS011;75497;42.708;23.330;2024-03-23T11:43:06;14.05;;;5.68;;
85137;SDS011;75497;42.708;23.330;2024-03-23T11:45:34;15.43;;;5.97;;
85137;SDS011;75497;42.708;23.330;2024-03-23T11:48:01;18.58;;;6.88;;
85137;SDS011;75497;42.708;23.330;2024-03-23T11:50:31;11.70;;;5.45;;
85137;SDS011;75497;42.708;23.330;2024-03-23T11:53:06;13.63;;;5.93;;
85137;SDS011;75497;42.708;23.330;2024-03-23T11:55:38;10.27;;;5.45;;
85137;SDS011;75497;42.708;23.330;2024-03-23T11:58:07;16.45;;;5.78;;
85137;SDS011;75497;42.708;23.330;2024-03-23T12:00:34;10.15;;;5.20;;
85137;SDS011;75497;42.708;23.330;2024-03-23T12:03:00;14.70;;;6.30;;
85137;SDS011;75497;42.708;23.330;2024-03-23T12:05:27;10.07;;;5.68;;
85137;SDS011;75497;42.708;23.330;2024-03-23T12:07:52;17.58;;;6.43;;
85137;SDS011;75497;42.708;23.330;2024-03-23T12:10:21;12.60;;;5.85;;
85137;SDS011;75497;42.708;23.330;2024-03-23T12:12:59;13.90;;;6.13;;
85137;SDS011;75497;42.708;23.330;2024-03-23T12:15:25;12.20;;;5.45;;
85137;SDS011;75497;42.708;23.330;2024-03-23T12:17:52;20.70;;;5.93;;
85137;SDS011;75497;42.708;23.330;2024-03-23T12:20:30;13.88;;;6.28;;
85137;SDS011;75497;42.708;23.330;2024-03-23T12:23:05;11.25;;;5.90;;
85137;SDS011;75497;42.708;23.330;2024-03-23T12:25:32;12.35;;;5.10;;
85137;SDS011;75497;42.708;23.330;2024-03-23T12:27:58;10.07;;;4.88;;
85137;SDS011;75497;42.708;23.330;2024-03-23T12:30:24;14.35;;;5.15;;
85137;SDS011;75497;42.708;23.330;2024-03-23T12:32:50;18.33;;;5.53;;
85137;SDS011;75497;42.708;23.330;2024-03-23T12:35:15;11.82;;;5.60;;
85137;SDS011;75497;42.708;23.330;2024-03-23T12:37:41;10.90;;;4.70;;
85137;SDS011;75497;42.708;23.330;2024-03-23T12:40:06;11.52;;;4.53;;
85137;SDS011;75497;42.708;23.330;2024-03-23T12:42:33;14.32;;;4.10;;
85137;SDS011;75497;42.708;23.330;2024-03-23T12:44:58;10.98;;;4.22;;
85137;SDS011;75497;42.708;23.330;2024-03-23T12:47:24;11.45;;;4.30;;
85137;SDS011;75497;42.708;23.330;2024-03-23T12:49:49;12.18;;;4.43;;
85137;SDS011;75497;42.708;23.330;2024-03-23T12:52:17;8.68;;;4.50;;
85137;SDS011;75497;42.708;23.330;2024-03-23T12:54:43;10.05;;;4.43;;
85137;SDS011;75497;42.708;23.330;2024-03-23T12:57:08;7.90;;;3.28;;
85137;SDS011;75497;42.708;23.330;2024-03-23T12:59:34;10.45;;;3.88;;
85137;SDS011;75497;42.708;23.330;2024-03-23T13:02:00;15.38;;;4.57;;
85137;SDS011;75497;42.708;23.330;2024-03-23T13:04:26;10.38;;;4.68;;
85137;SDS011;75497;42.708;23.330;2024-03-23T13:06:51;10.77;;;3.58;;
85137;SDS011;75497;42.708;23.330;2024-03-23T13:09:17;7.03;;;1.60;;
85137;SDS011;75497;42.708;23.330;2024-03-23T13:11:43;5.03;;;1.40;;
85137;SDS011;75497;42.708;23.330;2024-03-23T13:14:09;4.25;;;0.95;;
85137;SDS011;75497;42.708;23.330;2024-03-23T13:16:35;4.20;;;1.63;;
85137;SDS011;75497;42.708;23.330;2024-03-23T13:19:00;4.63;;;1.45;;
85137;SDS011;75497;42.708;23.330;2024-03-23T13:21:26;7.78;;;1.48;;
85137;SDS011;75497;42.708;23.330;2024-03-23T14:00:19;5.10;;;1.40;;
85137;SDS011;75497;42.708;23.330;2024-03-23T14:02:45;5.50;;;1.58;;
85137;SDS011;75497;42.708;23.330;2024-03-23T14:05:11;4.80;;;1.80;;
85137;SDS011;75497;42.708;23.330;2024-03-23T14:07:37;10.73;;;1.80;;
85137;SDS011;75497;42.708;23.330;2024-03-23T14:10:05;6.47;;;1.63;;
85137;SDS011;75497;42.708;23.330;2024-03-23T14:12:31;4.70;;;1.40;;
85137;SDS011;75497;42.708;23.330;2024-03-23T14:14:57;3.85;;;1.00;;
85137;SDS011;75497;42.708;23.330;2024-03-23T14:17:23;5.13;;;1.73;;
85137;SDS011;75497;42.708;23.330;2024-03-23T14:19:48;4.78;;;1.20;;
85137;SDS011;75497;42.708;23.330;2024-03-23T14:22:15;8.10;;;1.25;;
85137;SDS011;75497;42.708;23.330;2024-03-23T14:24:44;4.97;;;1.30;;
85137;SDS011;75497;42.708;23.330;2024-03-23T14:27:10;5.60;;;1.55;;
85137;SDS011;75497;42.708;23.330;2024-03-23T14:29:35;5.35;;;1.52;;
85137;SDS011;75497;42.708;23.330;2024-03-23T14:32:01;9.13;;;3.38;;
85137;SDS011;75497;42.708;23.330;2024-03-23T14:34:27;7.65;;;2.40;;
85137;SDS011;75497;42.708;23.330;2024-03-23T14:36:55;7.15;;;1.63;;
85137;SDS011;75497;42.708;23.330;2024-03-23T14:39:23;5.85;;;1.60;;
85137;SDS011;75497;42.708;23.330;2024-03-23T14:41:52;8.63;;;2.72;;
85137;SDS011;75497;42.708;23.330;2024-03-23T14:44:17;6.30;;;1.40;;
85137;SDS011;75497;42.708;23.330;2024-03-23T14:46:43;5.95;;;1.95;;
85137;SDS011;75497;42.708;23.330;2024-03-23T14:49:14;4.97;;;1.83;;
85137;SDS011;75497;42.708;23.330;2024-03-23T14:51:41;7.00;;;1.95;;
85137;SDS011;75497;42.708;23.330;2024-03-23T14:54:07;7.88;;;2.03;;
85137;SDS011;75497;42.708;23.330;2024-03-23T14:56:33;5.82;;;1.67;;
85137;SDS011;75497;42.708;23.330;2024-03-23T14:58:59;6.22;;;2.05;;
85137;SDS011;75497;42.708;23.330;2024-03-23T15:01:25;7.28;;;2.05;;
85137;SDS011;75497;42.708;23.330;2024-03-23T15:03:51;9.15;;;2.25;;
85137;SDS011;75497;42.708;23.330;2024-03-23T15:06:18;6.43;;;2.25;;
85137;SDS011;75497;42.708;23.330;2024-03-23T15:08:44;9.90;;;2.22;;
85137;SDS011;75497;42.708;23.330;2024-03-23T15:11:10;6.40;;;1.90;;
85137;SDS011;75497;42.708;23.330;2024-03-23T15:13:36;5.72;;;1.98;;
85137;SDS011;75497;42.708;23.330;2024-03-23T15:16:02;6.65;;;2.08;;
85137;SDS011;75497;42.708;23.330;2024-03-23T15:18:31;6.32;;;2.40;;
85137;SDS011;75497;42.708;23.330;2024-03-23T15:21:01;8.25;;;2.63;;
85137;SDS011;75497;42.708;23.330;2024-03-23T15:25:54;5.45;;;1.88;;
85137;SDS011;75497;42.708;23.330;2024-03-23T15:28:20;6.38;;;1.98;;
85137;SDS011;75497;42.708;23.330;2024-03-23T15:30:51;6.22;;;2.10;;
85137;SDS011;75497;42.708;23.330;2024-03-23T15:33:17;6.03;;;2.13;;
85137;SDS011;75497;42.708;23.330;2024-03-23T15:35:42;6.35;;;2.42;;
85137;SDS011;75497;42.708;23.330;2024-03-23T15:38:08;7.53;;;2.88;;
85137;SDS011;75497;42.708;23.330;2024-03-23T15:40:34;6.53;;;1.90;;
85137;SDS011;75497;42.708;23.330;2024-03-23T15:43:00;6.93;;;2.00;;
85137;SDS011;75497;42.708;23.330;2024-03-23T15:45:26;7.40;;;2.20;;
85137;SDS011;75497;42.708;23.330;2024-03-23T15:47:52;8.07;;;2.33;;
85137;SDS011;75497;42.708;23.330;2024-03-23T15:50:17;7.10;;;3.50;;
85137;SDS011;75497;42.708;23.330;2024-03-23T15:52:43;8.57;;;3.28;;
85137;SDS011;75497;42.708;23.330;2024-03-23T15:55:08;6.55;;;2.08;;
85137;SDS011;75497;42.708;23.330;2024-03-23T15:57:35;8.68;;;2.50;;
85137;SDS011;75497;42.708;23.330;2024-03-23T16:00:02;8.70;;;3.10;;
85137;SDS011;75497;42.708;23.330;2024-03-23T16:02:28;7.70;;;3.03;;
85137;SDS011;75497;42.708;23.330;2024-03-23T16:04:54;8.70;;;2.72;;
85137;SDS011;75497;42.708;23.330;2024-03-23T16:07:20;9.05;;;2.60;;